sensor_id;sensor_type;location;lat;lon;timestamp;P1;durP1;ratioP1;P2;durP2;ratioP2
14247;SDS011;7208;49.826;6.004;2023-01-24T00:00:38;5.47;;;4.97;;
14247;SDS011;7208;49.826;6.004;2023-01-24T00:03:04;5.67;;;5.20;;
14247;SDS011;7208;49.826;6.004;2023-01-24T00:05:32;5.47;;;4.97;;
14247;SDS011;7208;49.826;6.004;2023-01-24T00:07:58;5.63;;;5.13;;
14247;SDS011;7208;49.826;6.004;2023-01-24T00:10:24;5.57;;;5.00;;
14247;SDS011;7208;49.826;6.004;2023-01-24T00:12:50;6.17;;;5.57;;
14247;SDS011;7208;49.826;6.004;2023-01-24T00:15:17;5.40;;;4.83;;
14247;SDS011;7208;49.826;6.004;2023-01-24T00:17:43;5.37;;;4.87;;
14247;SDS011;7208;49.826;6.004;2023-01-24T00:20:09;8.68;;;7.97;;
14247;SDS011;7208;49.826;6.004;2023-01-24T00:22:36;6.80;;;6.07;;
14247;SDS011;7208;49.826;6.004;2023-01-24T00:25:02;6.90;;;6.17;;
14247;SDS011;7208;49.826;6.004;2023-01-24T00:27:28;5.80;;;5.20;;
14247;SDS011;7208;49.826;6.004;2023-01-24T00:29:56;5.10;;;4.60;;
14247;SDS011;7208;49.826;6.004;2023-01-24T00:32:22;5.27;;;4.77;;
14247;SDS011;7208;49.826;6.004;2023-01-24T00:34:48;5.57;;;5.07;;
14247;SDS011;7208;49.826;6.004;2023-01-24T00:37:14;5.70;;;5.20;;
14247;SDS011;7208;49.826;6.004;2023-01-24T00:39:40;5.40;;;4.90;;
14247;SDS011;7208;49.826;6.004;2023-01-24T00:42:06;5.57;;;5.07;;
14247;SDS011;7208;49.826;6.004;2023-01-24T00:44:32;4.77;;;4.43;;
14247;SDS011;7208;49.826;6.004;2023-01-24T00:46:58;5.57;;;5.07;;
14247;SDS011;7208;49.826;6.004;2023-01-24T00:49:24;5.23;;;4.80;;
14247;SDS011;7208;49.826;6.004;2023-01-24T00:51:50;5.87;;;5.23;;
14247;SDS011;7208;49.826;6.004;2023-01-24T00:54:16;5.40;;;4.90;;
14247;SDS011;7208;49.826;6.004;2023-01-24T00:56:42;4.70;;;4.30;;
14247;SDS011;7208;49.826;6.004;2023-01-24T00:59:09;5.70;;;5.20;;
14247;SDS011;7208;49.826;6.004;2023-01-24T01:01:35;5.60;;;5.10;;
14247;SDS011;7208;49.826;6.004;2023-01-24T01:04:01;5.70;;;5.20;;
14247;SDS011;7208;49.826;6.004;2023-01-24T01:06:28;6.10;;;5.50;;
14247;SDS011;7208;49.826;6.004;2023-01-24T01:08:54;5.63;;;5.13;;
14247;SDS011;7208;49.826;6.004;2023-01-24T01:11:20;5.97;;;5.47;;
14247;SDS011;7208;49.826;6.004;2023-01-24T01:13:46;5.97;;;5.47;;
14247;SDS011;7208;49.826;6.004;2023-01-24T01:16:16;5.23;;;4.73;;
14247;SDS011;7208;49.826;6.004;2023-01-24T01:18:44;6.33;;;5.73;;
14247;SDS011;7208;49.826;6.004;2023-01-24T01:21:14;5.50;;;5.00;;
14247;SDS011;7208;49.826;6.004;2023-01-24T01:23:41;5.90;;;5.30;;
14247;SDS011;7208;49.826;6.004;2023-01-24T01:26:08;4.53;;;4.13;;
14247;SDS011;7208;49.826;6.004;2023-01-24T01:28:34;6.07;;;5.20;;
14247;SDS011;7208;49.826;6.004;2023-01-24T01:31:01;5.43;;;4.93;;
14247;SDS011;7208;49.826;6.004;2023-01-24T01:33:27;5.50;;;5.00;;
14247;SDS011;7208;49.826;6.004;2023-01-24T01:35:55;6.30;;;5.70;;
14247;SDS011;7208;49.826;6.004;2023-01-24T01:38:21;5.30;;;4.80;;
14247;SDS011;7208;49.826;6.004;2023-01-24T01:40:49;5.83;;;5.27;;
14247;SDS011;7208;49.826;6.004;2023-01-24T01:43:16;6.10;;;5.50;;
14247;SDS011;7208;49.826;6.004;2023-01-24T01:45:50;6.33;;;5.73;;
14247;SDS011;7208;49.826;6.004;2023-01-24T01:48:36;6.10;;;5.53;;
14247;SDS011;7208;49.826;6.004;2023-01-24T01:51:05;7.47;;;5.77;;
14247;SDS011;7208;49.826;6.004;2023-01-24T01:53:34;5.50;;;5.00;;
14247;SDS011;7208;49.826;6.004;2023-01-24T01:56:03;5.23;;;4.60;;
14247;SDS011;7208;49.826;6.004;2023-01-24T01:58:30;6.50;;;5.90;;
14247;SDS011;7208;49.826;6.004;2023-01-24T02:00:57;6.13;;;5.63;;
14247;SDS011;7208;49.826;6.004;2023-01-24T02:03:29;6.17;;;5.67;;
14247;SDS011;7208;49.826;6.004;2023-01-24T02:06:10;5.30;;;4.80;;
14247;SDS011;7208;49.826;6.004;2023-01-24T02:08:36;5.17;;;4.67;;
14247;SDS011;7208;49.826;6.004;2023-01-24T02:11:03;5.77;;;4.93;;
14247;SDS011;7208;49.826;6.004;2023-01-24T02:13:49;6.10;;;5.50;;
14247;SDS011;7208;49.826;6.004;2023-01-24T02:16:35;5.50;;;4.93;;
14247;SDS011;7208;49.826;6.004;2023-01-24T02:19:01;5.77;;;5.13;;
14247;SDS011;7208;49.826;6.004;2023-01-24T02:21:27;6.70;;;5.97;;
14247;SDS011;7208;49.826;6.004;2023-01-24T02:23:56;6.20;;;5.50;;
14247;SDS011;7208;49.826;6.004;2023-01-24T02:26:25;5.33;;;4.83;;
14247;SDS011;7208;49.826;6.004;2023-01-24T02:28:53;5.93;;;5.37;;
14247;SDS011;7208;49.826;6.004;2023-01-24T02:31:20;6.17;;;5.57;;
14247;SDS011;7208;49.826;6.004;2023-01-24T02:33:46;5.20;;;4.80;;
14247;SDS011;7208;49.826;6.004;2023-01-24T02:38:44;6.10;;;5.50;;
14247;SDS011;7208;49.826;6.004;2023-01-24T02:41:11;5.00;;;4.57;;
14247;SDS011;7208;49.826;6.004;2023-01-24T02:43:39;6.00;;;5.40;;
14247;SDS011;7208;49.826;6.004;2023-01-24T02:46:07;4.83;;;4.37;;
14247;SDS011;7208;49.826;6.004;2023-01-24T02:48:32;6.63;;;5.60;;
14247;SDS011;7208;49.826;6.004;2023-01-24T02:50:58;5.47;;;4.97;;
14247;SDS011;7208;49.826;6.004;2023-01-24T02:53:43;5.00;;;4.57;;
14247;SDS011;7208;49.826;6.004;2023-01-24T02:56:09;5.83;;;5.33;;
14247;SDS011;7208;49.826;6.004;2023-01-24T02:58:54;5.10;;;4.70;;
14247;SDS011;7208;49.826;6.004;2023-01-24T03:01:21;5.90;;;5.30;;
14247;SDS011;7208;49.826;6.004;2023-01-24T03:03:48;5.37;;;4.93;;
14247;SDS011;7208;49.826;6.004;2023-01-24T03:06:15;6.20;;;5.60;;
14247;SDS011;7208;49.826;6.004;2023-01-24T03:08:41;6.03;;;5.43;;
14247;SDS011;7208;49.826;6.004;2023-01-24T03:11:08;5.90;;;5.33;;
14247;SDS011;7208;49.826;6.004;2023-01-24T03:13:34;6.53;;;5.47;;
14247;SDS011;7208;49.826;6.004;2023-01-24T03:16:19;5.50;;;5.00;;
14247;SDS011;7208;49.826;6.004;2023-01-24T03:19:05;5.50;;;5.00;;
14247;SDS011;7208;49.826;6.004;2023-01-24T03:21:50;5.33;;;4.83;;
14247;SDS011;7208;49.826;6.004;2023-01-24T03:24:35;5.17;;;4.70;;
14247;SDS011;7208;49.826;6.004;2023-01-24T03:27:19;5.00;;;4.57;;
14247;SDS011;7208;49.826;6.004;2023-01-24T03:30:05;6.00;;;4.97;;
14247;SDS011;7208;49.826;6.004;2023-01-24T03:32:50;8.50;;;5.23;;
14247;SDS011;7208;49.826;6.004;2023-01-24T03:35:34;5.07;;;4.57;;
14247;SDS011;7208;49.826;6.004;2023-01-24T03:38:00;5.97;;;5.40;;
14247;SDS011;7208;49.826;6.004;2023-01-24T03:40:45;5.03;;;4.50;;
14247;SDS011;7208;49.826;6.004;2023-01-24T03:43:13;5.43;;;4.93;;
14247;SDS011;7208;49.826;6.004;2023-01-24T03:45:39;5.70;;;5.13;;
14247;SDS011;7208;49.826;6.004;2023-01-24T03:48:06;5.30;;;4.80;;
14247;SDS011;7208;49.826;6.004;2023-01-24T03:50:38;5.73;;;5.23;;
14247;SDS011;7208;49.826;6.004;2023-01-24T03:53:24;4.73;;;4.30;;
14247;SDS011;7208;49.826;6.004;2023-01-24T03:55:54;5.20;;;4.60;;
14247;SDS011;7208;49.826;6.004;2023-01-24T03:58:21;5.77;;;5.17;;
14247;SDS011;7208;49.826;6.004;2023-01-24T04:00:47;4.80;;;4.40;;
14247;SDS011;7208;49.826;6.004;2023-01-24T04:03:13;5.70;;;5.20;;
14247;SDS011;7208;49.826;6.004;2023-01-24T04:05:39;5.33;;;4.83;;
14247;SDS011;7208;49.826;6.004;2023-01-24T04:08:06;6.00;;;5.40;;
14247;SDS011;7208;49.826;6.004;2023-01-24T04:10:32;6.43;;;5.90;;
14247;SDS011;7208;49.826;6.004;2023-01-24T04:12:58;6.10;;;5.57;;
14247;SDS011;7208;49.826;6.004;2023-01-24T04:15:26;5.60;;;5.10;;
14247;SDS011;7208;49.826;6.004;2023-01-24T04:17:56;6.97;;;5.40;;
14247;SDS011;7208;49.826;6.004;2023-01-24T04:20:22;4.57;;;4.20;;
14247;SDS011;7208;49.826;6.004;2023-01-24T04:22:49;5.03;;;4.63;;
14247;SDS011;7208;49.826;6.004;2023-01-24T04:25:15;5.40;;;4.90;;
14247;SDS011;7208;49.826;6.004;2023-01-24T04:27:41;6.40;;;5.80;;
14247;SDS011;7208;49.826;6.004;2023-01-24T04:30:08;5.73;;;5.17;;
14247;SDS011;7208;49.826;6.004;2023-01-24T04:32:35;5.50;;;5.00;;
14247;SDS011;7208;49.826;6.004;2023-01-24T04:35:01;5.63;;;5.10;;
14247;SDS011;7208;49.826;6.004;2023-01-24T04:37:31;5.20;;;4.70;;
14247;SDS011;7208;49.826;6.004;2023-01-24T04:39:57;6.87;;;5.47;;
14247;SDS011;7208;49.826;6.004;2023-01-24T04:42:23;6.03;;;5.53;;
14247;SDS011;7208;49.826;6.004;2023-01-24T04:44:49;6.17;;;5.57;;
14247;SDS011;7208;49.826;6.004;2023-01-24T04:47:15;6.00;;;5.50;;
14247;SDS011;7208;49.826;6.004;2023-01-24T04:49:41;6.33;;;5.73;;
14247;SDS011;7208;49.826;6.004;2023-01-24T04:52:10;5.77;;;5.17;;
14247;SDS011;7208;49.826;6.004;2023-01-24T04:54:37;4.93;;;4.53;;
14247;SDS011;7208;49.826;6.004;2023-01-24T04:57:03;5.70;;;5.20;;
14247;SDS011;7208;49.826;6.004;2023-01-24T04:59:30;5.50;;;5.00;;
14247;SDS011;7208;49.826;6.004;2023-01-24T05:01:56;6.30;;;5.47;;
14247;SDS011;7208;49.826;6.004;2023-01-24T05:04:22;6.60;;;6.00;;
14247;SDS011;7208;49.826;6.004;2023-01-24T05:06:48;5.83;;;5.33;;
14247;SDS011;7208;49.826;6.004;2023-01-24T05:09:14;6.07;;;5.47;;
14247;SDS011;7208;49.826;6.004;2023-01-24T05:11:40;6.53;;;5.93;;
14247;SDS011;7208;49.826;6.004;2023-01-24T05:14:09;5.07;;;4.57;;
14247;SDS011;7208;49.826;6.004;2023-01-24T05:16:35;5.60;;;5.10;;
14247;SDS011;7208;49.826;6.004;2023-01-24T05:19:02;6.23;;;5.63;;
14247;SDS011;7208;49.826;6.004;2023-01-24T05:21:28;6.77;;;6.17;;
14247;SDS011;7208;49.826;6.004;2023-01-24T05:23:54;6.20;;;5.60;;
14247;SDS011;7208;49.826;6.004;2023-01-24T05:26:20;7.20;;;6.60;;
14247;SDS011;7208;49.826;6.004;2023-01-24T05:28:48;7.60;;;6.03;;
14247;SDS011;7208;49.826;6.004;2023-01-24T05:31:14;5.93;;;5.33;;
14247;SDS011;7208;49.826;6.004;2023-01-24T05:33:40;5.80;;;5.30;;
14247;SDS011;7208;49.826;6.004;2023-01-24T05:36:10;6.27;;;5.67;;
14247;SDS011;7208;49.826;6.004;2023-01-24T05:38:36;6.47;;;5.87;;
14247;SDS011;7208;49.826;6.004;2023-01-24T05:41:04;6.43;;;5.83;;
14247;SDS011;7208;49.826;6.004;2023-01-24T05:43:30;7.60;;;6.47;;
14247;SDS011;7208;49.826;6.004;2023-01-24T05:46:07;6.67;;;6.07;;
14247;SDS011;7208;49.826;6.004;2023-01-24T05:48:33;6.43;;;5.83;;
14247;SDS011;7208;49.826;6.004;2023-01-24T05:51:00;5.77;;;5.27;;
14247;SDS011;7208;49.826;6.004;2023-01-24T05:53:27;6.43;;;5.77;;
14247;SDS011;7208;49.826;6.004;2023-01-24T05:55:54;6.67;;;6.07;;
14247;SDS011;7208;49.826;6.004;2023-01-24T05:58:20;7.07;;;6.37;;
14247;SDS011;7208;49.826;6.004;2023-01-24T06:00:46;6.83;;;6.13;;
14247;SDS011;7208;49.826;6.004;2023-01-24T06:03:12;8.07;;;6.20;;
14247;SDS011;7208;49.826;6.004;2023-01-24T06:05:38;6.73;;;6.13;;
14247;SDS011;7208;49.826;6.004;2023-01-24T06:08:04;6.33;;;5.73;;
14247;SDS011;7208;49.826;6.004;2023-01-24T06:10:30;6.07;;;5.57;;
14247;SDS011;7208;49.826;6.004;2023-01-24T06:12:58;5.93;;;5.33;;
14247;SDS011;7208;49.826;6.004;2023-01-24T06:15:24;6.70;;;6.00;;
14247;SDS011;7208;49.826;6.004;2023-01-24T06:17:50;6.27;;;5.67;;
14247;SDS011;7208;49.826;6.004;2023-01-24T06:20:16;5.73;;;5.10;;
14247;SDS011;7208;49.826;6.004;2023-01-24T06:25:17;7.97;;;6.87;;
14247;SDS011;7208;49.826;6.004;2023-01-24T06:27:45;6.23;;;5.60;;
14247;SDS011;7208;49.826;6.004;2023-01-24T06:30:11;6.13;;;5.53;;
14247;SDS011;7208;49.826;6.004;2023-01-24T06:35:25;7.27;;;6.37;;
14247;SDS011;7208;49.826;6.004;2023-01-24T06:37:50;6.83;;;6.13;;
14247;SDS011;7208;49.826;6.004;2023-01-24T06:40:23;5.80;;;5.30;;
14247;SDS011;7208;49.826;6.004;2023-01-24T06:42:50;6.43;;;5.83;;
14247;SDS011;7208;49.826;6.004;2023-01-24T06:45:16;5.93;;;5.37;;
14247;SDS011;7208;49.826;6.004;2023-01-24T06:47:42;5.70;;;5.20;;
14247;SDS011;7208;49.826;6.004;2023-01-24T06:50:13;6.80;;;6.10;;
14247;SDS011;7208;49.826;6.004;2023-01-24T06:52:39;6.63;;;6.03;;
14247;SDS011;7208;49.826;6.004;2023-01-24T06:55:05;7.33;;;6.23;;
14247;SDS011;7208;49.826;6.004;2023-01-24T06:57:32;7.43;;;6.73;;
14247;SDS011;7208;49.826;6.004;2023-01-24T06:59:58;6.03;;;5.43;;
14247;SDS011;7208;49.826;6.004;2023-01-24T07:02:24;6.80;;;6.10;;
14247;SDS011;7208;49.826;6.004;2023-01-24T07:04:50;7.07;;;6.30;;
14247;SDS011;7208;49.826;6.004;2023-01-24T07:07:16;7.13;;;6.43;;
14247;SDS011;7208;49.826;6.004;2023-01-24T07:09:42;7.10;;;6.50;;
14247;SDS011;7208;49.826;6.004;2023-01-24T07:12:08;6.50;;;6.00;;
14247;SDS011;7208;49.826;6.004;2023-01-24T07:14:34;7.60;;;6.80;;
14247;SDS011;7208;49.826;6.004;2023-01-24T07:17:00;8.60;;;7.70;;
14247;SDS011;7208;49.826;6.004;2023-01-24T07:19:27;7.00;;;6.30;;
14247;SDS011;7208;49.826;6.004;2023-01-24T07:21:53;7.13;;;6.53;;
14247;SDS011;7208;49.826;6.004;2023-01-24T07:24:22;6.07;;;5.50;;
14247;SDS011;7208;49.826;6.004;2023-01-24T07:26:50;6.67;;;6.07;;
14247;SDS011;7208;49.826;6.004;2023-01-24T07:29:16;7.70;;;6.43;;
14247;SDS011;7208;49.826;6.004;2023-01-24T07:31:43;7.53;;;6.83;;
14247;SDS011;7208;49.826;6.004;2023-01-24T07:34:09;6.87;;;6.27;;
14247;SDS011;7208;49.826;6.004;2023-01-24T07:36:35;6.77;;;6.13;;
14247;SDS011;7208;49.826;6.004;2023-01-24T07:39:01;7.37;;;6.67;;
14247;SDS011;7208;49.826;6.004;2023-01-24T07:41:27;6.80;;;6.20;;
14247;SDS011;7208;49.826;6.004;2023-01-24T07:43:53;5.73;;;5.23;;
14247;SDS011;7208;49.826;6.004;2023-01-24T07:46:20;6.20;;;5.67;;
14247;SDS011;7208;49.826;6.004;2023-01-24T07:48:46;7.03;;;6.33;;
14247;SDS011;7208;49.826;6.004;2023-01-24T07:51:12;7.03;;;6.33;;
14247;SDS011;7208;49.826;6.004;2023-01-24T07:53:38;6.63;;;6.03;;
14247;SDS011;7208;49.826;6.004;2023-01-24T07:56:05;6.13;;;5.63;;
14247;SDS011;7208;49.826;6.004;2023-01-24T07:58:32;5.67;;;5.17;;
14247;SDS011;7208;49.826;6.004;2023-01-24T08:00:58;6.63;;;6.03;;
14247;SDS011;7208;49.826;6.004;2023-01-24T08:03:24;6.17;;;5.60;;
14247;SDS011;7208;49.826;6.004;2023-01-24T08:05:50;6.53;;;5.60;;
14247;SDS011;7208;49.826;6.004;2023-01-24T08:08:16;6.33;;;5.73;;
14247;SDS011;7208;49.826;6.004;2023-01-24T08:10:42;5.80;;;5.20;;
14247;SDS011;7208;49.826;6.004;2023-01-24T08:13:08;6.23;;;5.33;;
14247;SDS011;7208;49.826;6.004;2023-01-24T08:15:34;5.60;;;5.10;;
14247;SDS011;7208;49.826;6.004;2023-01-24T08:18:03;6.00;;;5.50;;
14247;SDS011;7208;49.826;6.004;2023-01-24T08:20:29;6.00;;;5.43;;
14247;SDS011;7208;49.826;6.004;2023-01-24T08:22:56;5.60;;;5.10;;
14247;SDS011;7208;49.826;6.004;2023-01-24T08:25:23;4.90;;;4.47;;
14247;SDS011;7208;49.826;6.004;2023-01-24T08:27:49;5.57;;;5.03;;
14247;SDS011;7208;49.826;6.004;2023-01-24T08:30:15;5.37;;;4.87;;
14247;SDS011;7208;49.826;6.004;2023-01-24T08:32:41;5.10;;;4.70;;
14247;SDS011;7208;49.826;6.004;2023-01-24T08:35:07;6.17;;;5.57;;
14247;SDS011;7208;49.826;6.004;2023-01-24T08:37:34;6.03;;;5.47;;
14247;SDS011;7208;49.826;6.004;2023-01-24T08:40:00;9.05;;;8.38;;
14247;SDS011;7208;49.826;6.004;2023-01-24T08:42:26;9.53;;;8.63;;
14247;SDS011;7208;49.826;6.004;2023-01-24T08:44:52;6.27;;;5.67;;
14247;SDS011;7208;49.826;6.004;2023-01-24T08:47:18;6.90;;;5.70;;
14247;SDS011;7208;49.826;6.004;2023-01-24T08:49:44;5.77;;;5.13;;
14247;SDS011;7208;49.826;6.004;2023-01-24T08:52:10;6.30;;;5.63;;
14247;SDS011;7208;49.826;6.004;2023-01-24T08:54:36;4.93;;;4.43;;
14247;SDS011;7208;49.826;6.004;2023-01-24T08:57:02;7.23;;;6.63;;
14247;SDS011;7208;49.826;6.004;2023-01-24T08:59:29;6.13;;;5.63;;
14247;SDS011;7208;49.826;6.004;2023-01-24T09:01:55;6.40;;;5.90;;
14247;SDS011;7208;49.826;6.004;2023-01-24T09:04:21;5.97;;;5.47;;
14247;SDS011;7208;49.826;6.004;2023-01-24T09:06:47;5.60;;;5.10;;
14247;SDS011;7208;49.826;6.004;2023-01-24T09:09:16;5.37;;;4.87;;
14247;SDS011;7208;49.826;6.004;2023-01-24T09:11:42;5.03;;;4.53;;
14247;SDS011;7208;49.826;6.004;2023-01-24T09:14:08;5.37;;;4.87;;
14247;SDS011;7208;49.826;6.004;2023-01-24T09:16:34;5.23;;;4.73;;
14247;SDS011;7208;49.826;6.004;2023-01-24T09:19:00;5.67;;;5.10;;
14247;SDS011;7208;49.826;6.004;2023-01-24T09:21:26;5.80;;;5.03;;
14247;SDS011;7208;49.826;6.004;2023-01-24T09:23:53;5.20;;;4.73;;
14247;SDS011;7208;49.826;6.004;2023-01-24T09:26:19;7.33;;;6.60;;
14247;SDS011;7208;49.826;6.004;2023-01-24T09:28:45;5.67;;;4.83;;
14247;SDS011;7208;49.826;6.004;2023-01-24T09:31:11;5.73;;;5.23;;
14247;SDS011;7208;49.826;6.004;2023-01-24T09:33:38;5.70;;;5.20;;
14247;SDS011;7208;49.826;6.004;2023-01-24T09:36:04;6.20;;;5.60;;
14247;SDS011;7208;49.826;6.004;2023-01-24T09:38:31;6.67;;;5.80;;
14247;SDS011;7208;49.826;6.004;2023-01-24T09:48:43;5.80;;;5.30;;
14247;SDS011;7208;49.826;6.004;2023-01-24T09:51:13;6.53;;;5.93;;
14247;SDS011;7208;49.826;6.004;2023-01-24T09:53:41;6.63;;;5.83;;
14247;SDS011;7208;49.826;6.004;2023-01-24T09:56:09;6.80;;;6.20;;
14247;SDS011;7208;49.826;6.004;2023-01-24T09:58:41;8.13;;;6.93;;
14247;SDS011;7208;49.826;6.004;2023-01-24T10:01:11;6.73;;;6.07;;
14247;SDS011;7208;49.826;6.004;2023-01-24T10:03:38;6.43;;;5.83;;
14247;SDS011;7208;49.826;6.004;2023-01-24T10:06:26;6.37;;;5.77;;
14247;SDS011;7208;49.826;6.004;2023-01-24T10:24:24;6.27;;;5.63;;
14247;SDS011;7208;49.826;6.004;2023-01-24T10:26:52;14.70;;;9.50;;
14247;SDS011;7208;49.826;6.004;2023-01-24T10:31:48;5.90;;;5.30;;
14247;SDS011;7208;49.826;6.004;2023-01-24T10:34:17;6.63;;;6.03;;
14247;SDS011;7208;49.826;6.004;2023-01-24T10:36:50;6.33;;;5.83;;
14247;SDS011;7208;49.826;6.004;2023-01-24T10:39:17;6.23;;;5.63;;
14247;SDS011;7208;49.826;6.004;2023-01-24T10:41:43;6.03;;;5.43;;
14247;SDS011;7208;49.826;6.004;2023-01-24T10:44:13;6.27;;;5.67;;
14247;SDS011;7208;49.826;6.004;2023-01-24T10:59:44;5.90;;;5.40;;
14247;SDS011;7208;49.826;6.004;2023-01-24T11:02:18;5.97;;;5.37;;
14247;SDS011;7208;49.826;6.004;2023-01-24T11:04:45;6.07;;;5.47;;
14247;SDS011;7208;49.826;6.004;2023-01-24T11:07:23;5.60;;;5.10;;
14247;SDS011;7208;49.826;6.004;2023-01-24T11:09:52;5.97;;;5.47;;
14247;SDS011;7208;49.826;6.004;2023-01-24T11:12:18;5.77;;;5.27;;
14247;SDS011;7208;49.826;6.004;2023-01-24T11:14:46;6.57;;;5.97;;
14247;SDS011;7208;49.826;6.004;2023-01-24T11:17:29;6.23;;;5.73;;
14247;SDS011;7208;49.826;6.004;2023-01-24T11:20:04;5.90;;;5.40;;
14247;SDS011;7208;49.826;6.004;2023-01-24T11:22:41;5.43;;;4.93;;
14247;SDS011;7208;49.826;6.004;2023-01-24T11:25:13;5.50;;;5.10;;
14247;SDS011;7208;49.826;6.004;2023-01-24T11:27:48;5.83;;;5.27;;
14247;SDS011;7208;49.826;6.004;2023-01-24T11:30:16;6.20;;;5.63;;
14247;SDS011;7208;49.826;6.004;2023-01-24T11:33:05;5.37;;;4.87;;
14247;SDS011;7208;49.826;6.004;2023-01-24T11:35:34;5.83;;;5.30;;
14247;SDS011;7208;49.826;6.004;2023-01-24T11:38:12;5.07;;;4.67;;
14247;SDS011;7208;49.826;6.004;2023-01-24T11:43:30;5.33;;;4.83;;
14247;SDS011;7208;49.826;6.004;2023-01-24T11:51:18;6.03;;;5.37;;
14247;SDS011;7208;49.826;6.004;2023-01-24T12:09:32;6.27;;;5.57;;
14247;SDS011;7208;49.826;6.004;2023-01-24T12:19:50;5.60;;;5.10;;
14247;SDS011;7208;49.826;6.004;2023-01-24T12:22:21;5.47;;;4.97;;
14247;SDS011;7208;49.826;6.004;2023-01-24T12:24:51;5.03;;;4.53;;
14247;SDS011;7208;49.826;6.004;2023-01-24T12:27:21;5.73;;;5.23;;
14247;SDS011;7208;49.826;6.004;2023-01-24T12:29:52;6.77;;;6.17;;
14247;SDS011;7208;49.826;6.004;2023-01-24T12:34:53;5.80;;;5.20;;
14247;SDS011;7208;49.826;6.004;2023-01-24T12:40:00;7.13;;;6.43;;
14247;SDS011;7208;49.826;6.004;2023-01-24T12:42:36;6.97;;;6.37;;
14247;SDS011;7208;49.826;6.004;2023-01-24T12:45:05;6.33;;;5.73;;
14247;SDS011;7208;49.826;6.004;2023-01-24T12:47:37;6.13;;;5.53;;
14247;SDS011;7208;49.826;6.004;2023-01-24T12:55:18;5.50;;;5.00;;
14247;SDS011;7208;49.826;6.004;2023-01-24T12:57:47;7.07;;;6.23;;
14247;SDS011;7208;49.826;6.004;2023-01-24T13:00:15;5.77;;;5.23;;
14247;SDS011;7208;49.826;6.004;2023-01-24T13:13:23;4.77;;;4.37;;
14247;SDS011;7208;49.826;6.004;2023-01-24T13:16:04;4.63;;;4.23;;
14247;SDS011;7208;49.826;6.004;2023-01-24T13:21:13;5.17;;;4.67;;
14247;SDS011;7208;49.826;6.004;2023-01-24T13:26:47;4.70;;;4.00;;
14247;SDS011;7208;49.826;6.004;2023-01-24T13:34:21;4.70;;;4.30;;
14247;SDS011;7208;49.826;6.004;2023-01-24T13:36:49;4.63;;;4.23;;
14247;SDS011;7208;49.826;6.004;2023-01-24T13:42:21;5.30;;;4.80;;
14247;SDS011;7208;49.826;6.004;2023-01-24T13:44:48;4.47;;;4.07;;
14247;SDS011;7208;49.826;6.004;2023-01-24T13:54:56;4.97;;;4.50;;
14247;SDS011;7208;49.826;6.004;2023-01-24T13:57:26;4.83;;;4.43;;
14247;SDS011;7208;49.826;6.004;2023-01-24T14:02:36;4.97;;;4.53;;
14247;SDS011;7208;49.826;6.004;2023-01-24T14:05:32;5.37;;;4.83;;
14247;SDS011;7208;49.826;6.004;2023-01-24T14:07:50;5.53;;;4.70;;
14247;SDS011;7208;49.826;6.004;2023-01-24T14:10:16;6.23;;;5.37;;
14247;SDS011;7208;49.826;6.004;2023-01-24T14:12:52;5.23;;;4.40;;
14247;SDS011;7208;49.826;6.004;2023-01-24T14:17:47;4.60;;;4.07;;
14247;SDS011;7208;49.826;6.004;2023-01-24T14:22:47;4.33;;;3.70;;
14247;SDS011;7208;49.826;6.004;2023-01-24T14:27:46;4.50;;;4.10;;
14247;SDS011;7208;49.826;6.004;2023-01-24T14:32:52;3.70;;;3.40;;
14247;SDS011;7208;49.826;6.004;2023-01-24T14:35:20;4.47;;;3.73;;
14247;SDS011;7208;49.826;6.004;2023-01-24T14:37:47;4.30;;;3.90;;
14247;SDS011;7208;49.826;6.004;2023-01-24T14:40:23;3.60;;;3.30;;
14247;SDS011;7208;49.826;6.004;2023-01-24T14:42:50;4.00;;;3.50;;
14247;SDS011;7208;49.826;6.004;2023-01-24T14:45:21;3.97;;;3.17;;
14247;SDS011;7208;49.826;6.004;2023-01-24T14:47:48;4.37;;;3.77;;
14247;SDS011;7208;49.826;6.004;2023-01-24T14:50:22;4.03;;;3.53;;
14247;SDS011;7208;49.826;6.004;2023-01-24T14:52:49;4.87;;;4.10;;
14247;SDS011;7208;49.826;6.004;2023-01-24T14:57:44;4.90;;;3.53;;
14247;SDS011;7208;49.826;6.004;2023-01-24T15:02:49;5.83;;;3.60;;
14247;SDS011;7208;49.826;6.004;2023-01-24T15:05:32;3.77;;;3.40;;
14247;SDS011;7208;49.826;6.004;2023-01-24T15:08:00;4.70;;;3.80;;
14247;SDS011;7208;49.826;6.004;2023-01-24T15:10:37;4.30;;;3.63;;
14247;SDS011;7208;49.826;6.004;2023-01-24T15:13:16;4.03;;;3.60;;
14247;SDS011;7208;49.826;6.004;2023-01-24T15:15:44;4.30;;;3.90;;
14247;SDS011;7208;49.826;6.004;2023-01-24T15:18:25;4.33;;;3.50;;
14247;SDS011;7208;49.826;6.004;2023-01-24T15:20:52;4.23;;;3.83;;
14247;SDS011;7208;49.826;6.004;2023-01-24T15:23:20;3.80;;;3.47;;
14247;SDS011;7208;49.826;6.004;2023-01-24T15:25:47;4.50;;;4.00;;
14247;SDS011;7208;49.826;6.004;2023-01-24T15:28:31;4.80;;;3.70;;
14247;SDS011;7208;49.826;6.004;2023-01-24T15:30:58;4.90;;;4.40;;
14247;SDS011;7208;49.826;6.004;2023-01-24T15:33:39;5.13;;;4.23;;
14247;SDS011;7208;49.826;6.004;2023-01-24T15:39:01;4.50;;;3.73;;
14247;SDS011;7208;49.826;6.004;2023-01-24T15:41:30;4.33;;;3.77;;
14247;SDS011;7208;49.826;6.004;2023-01-24T15:44:19;3.40;;;3.10;;
14247;SDS011;7208;49.826;6.004;2023-01-24T15:46:45;3.87;;;3.47;;
14247;SDS011;7208;49.826;6.004;2023-01-24T15:49:38;4.23;;;3.87;;
14247;SDS011;7208;49.826;6.004;2023-01-24T15:54:30;4.60;;;4.10;;
14247;SDS011;7208;49.826;6.004;2023-01-24T15:56:57;3.90;;;3.43;;
14247;SDS011;7208;49.826;6.004;2023-01-24T15:59:24;3.50;;;3.07;;
14247;SDS011;7208;49.826;6.004;2023-01-24T16:01:50;4.30;;;3.87;;
14247;SDS011;7208;49.826;6.004;2023-01-24T16:04:17;4.37;;;3.90;;
14247;SDS011;7208;49.826;6.004;2023-01-24T16:06:43;5.20;;;3.90;;
14247;SDS011;7208;49.826;6.004;2023-01-24T16:09:09;5.67;;;5.07;;
14247;SDS011;7208;49.826;6.004;2023-01-24T16:11:36;3.47;;;3.17;;
14247;SDS011;7208;49.826;6.004;2023-01-24T16:14:02;3.90;;;3.50;;
14247;SDS011;7208;49.826;6.004;2023-01-24T16:16:29;4.30;;;3.70;;
14247;SDS011;7208;49.826;6.004;2023-01-24T16:18:55;4.37;;;3.97;;
14247;SDS011;7208;49.826;6.004;2023-01-24T16:21:21;4.97;;;4.20;;
14247;SDS011;7208;49.826;6.004;2023-01-24T16:23:47;4.60;;;4.03;;
14247;SDS011;7208;49.826;6.004;2023-01-24T16:26:18;3.90;;;3.60;;
14247;SDS011;7208;49.826;6.004;2023-01-24T16:28:45;5.23;;;4.37;;
14247;SDS011;7208;49.826;6.004;2023-01-24T16:31:11;5.23;;;4.73;;
14247;SDS011;7208;49.826;6.004;2023-01-24T16:33:37;4.40;;;4.00;;
14247;SDS011;7208;49.826;6.004;2023-01-24T16:36:03;4.77;;;3.87;;
14247;SDS011;7208;49.826;6.004;2023-01-24T16:38:29;5.20;;;4.03;;
14247;SDS011;7208;49.826;6.004;2023-01-24T16:40:55;6.70;;;6.15;;
14247;SDS011;7208;49.826;6.004;2023-01-24T16:43:21;6.20;;;5.60;;
14247;SDS011;7208;49.826;6.004;2023-01-24T16:45:49;7.25;;;6.60;;
14247;SDS011;7208;49.826;6.004;2023-01-24T16:48:16;8.10;;;7.30;;
14247;SDS011;7208;49.826;6.004;2023-01-24T16:50:43;6.47;;;5.57;;
14247;SDS011;7208;49.826;6.004;2023-01-24T16:53:09;4.77;;;4.37;;
14247;SDS011;7208;49.826;6.004;2023-01-24T16:55:36;5.03;;;4.53;;
14247;SDS011;7208;49.826;6.004;2023-01-24T16:58:06;5.00;;;4.50;;
14247;SDS011;7208;49.826;6.004;2023-01-24T17:00:32;5.07;;;4.43;;
14247;SDS011;7208;49.826;6.004;2023-01-24T17:02:58;5.77;;;4.50;;
14247;SDS011;7208;49.826;6.004;2023-01-24T17:05:25;5.23;;;4.70;;
14247;SDS011;7208;49.826;6.004;2023-01-24T17:07:53;6.07;;;4.87;;
14247;SDS011;7208;49.826;6.004;2023-01-24T17:10:19;4.90;;;4.40;;
14247;SDS011;7208;49.826;6.004;2023-01-24T17:12:45;5.87;;;5.27;;
14247;SDS011;7208;49.826;6.004;2023-01-24T17:15:11;6.63;;;5.53;;
14247;SDS011;7208;49.826;6.004;2023-01-24T17:17:37;5.47;;;4.97;;
14247;SDS011;7208;49.826;6.004;2023-01-24T17:20:07;6.90;;;5.90;;
14247;SDS011;7208;49.826;6.004;2023-01-24T17:22:34;5.73;;;5.23;;
14247;SDS011;7208;49.826;6.004;2023-01-24T17:25:00;7.33;;;4.90;;
14247;SDS011;7208;49.826;6.004;2023-01-24T17:27:26;6.33;;;5.73;;
14247;SDS011;7208;49.826;6.004;2023-01-24T17:29:52;5.47;;;4.53;;
14247;SDS011;7208;49.826;6.004;2023-01-24T17:32:19;5.00;;;4.50;;